createdAt,value
2023-04-19T00:00:00.068Z,7.53
2023-04-19T00:02:29.270Z,7.52
2023-04-19T00:04:57.735Z,7.55
2023-04-19T00:07:25.984Z,7.57
2023-04-19T00:09:55.756Z,7.60
2023-04-19T00:12:23.947Z,7.63
2023-04-19T00:14:53.450Z,7.69
2023-04-19T00:17:21.651Z,7.70
2023-04-19T00:19:49.708Z,7.71
2023-04-19T00:22:17.640Z,7.73
2023-04-19T00:24:45.660Z,7.73
2023-04-19T00:27:13.683Z,7.70
2023-04-19T00:29:41.884Z,7.74
2023-04-19T00:32:09.822Z,7.74
2023-04-19T00:34:38.022Z,7.71
2023-04-19T00:37:05.977Z,7.70
2023-04-19T00:39:34.169Z,7.74
2023-04-19T00:42:02.214Z,7.77
2023-04-19T00:44:30.077Z,7.83
2023-04-19T00:46:58.140Z,7.87
2023-04-19T00:49:26.858Z,7.91
2023-04-19T00:51:54.896Z,8.01
2023-04-19T00:54:23.461Z,8.04
2023-04-19T00:56:52.539Z,8.04
2023-04-19T00:59:21.182Z,8.04
2023-04-19T01:01:49.257Z,8.06
2023-04-19T01:04:18.006Z,8.04
2023-04-19T01:06:50.141Z,8.05
2023-04-19T01:09:18.164Z,8.02
2023-04-19T01:11:46.580Z,7.99
2023-04-19T01:14:15.361Z,7.98
2023-04-19T01:16:43.800Z,7.91
2023-04-19T01:19:12.240Z,7.88
2023-04-19T01:21:42.791Z,7.88
2023-04-19T01:24:10.935Z,7.87
2023-04-19T01:26:38.869Z,7.88
2023-04-19T01:29:11.218Z,7.92
2023-04-19T01:31:39.372Z,7.94
2023-04-19T01:34:07.889Z,7.95
2023-04-19T01:36:36.089Z,8.01
2023-04-19T01:39:04.191Z,8.02
2023-04-19T01:41:32.431Z,8.01
2023-04-19T01:44:00.979Z,8.05
2023-04-19T01:46:29.110Z,8.06
2023-04-19T01:48:57.033Z,8.11
2023-04-19T01:51:24.984Z,8.12
2023-04-19T01:53:54.622Z,8.18
2023-04-19T01:56:24.352Z,8.24
2023-04-19T01:58:52.408Z,8.28
2023-04-19T02:01:20.800Z,8.30
2023-04-19T02:03:50.242Z,8.33
2023-04-19T02:06:18.457Z,8.38
2023-04-19T02:08:46.519Z,8.43
2023-04-19T02:11:14.792Z,8.46
2023-04-19T02:13:43.166Z,8.46
2023-04-19T02:16:11.789Z,8.54
2023-04-19T02:18:40.612Z,8.56
2023-04-19T02:21:11.502Z,8.61
2023-04-19T02:23:39.663Z,8.67
2023-04-19T02:26:11.544Z,8.70
2023-04-19T02:28:39.867Z,8.70
2023-04-19T02:31:08.422Z,8.74
2023-04-19T02:33:36.634Z,8.78
2023-04-19T02:36:05.120Z,8.83
2023-04-19T02:38:34.831Z,8.85
2023-04-19T02:41:04.561Z,8.84
2023-04-19T02:43:34.885Z,8.88
2023-04-19T02:46:03.404Z,8.87
2023-04-19T02:48:31.483Z,8.85
2023-04-19T02:50:59.614Z,8.84
2023-04-19T02:53:28.581Z,8.80
2023-04-19T02:55:56.781Z,8.80
2023-04-19T02:58:24.923Z,8.75
2023-04-19T03:01:03.763Z,8.64
2023-04-19T03:03:34.691Z,8.57
2023-04-19T03:06:03.409Z,8.45
2023-04-19T03:08:33.076Z,8.38
2023-04-19T03:11:01.054Z,8.32
2023-04-19T03:13:31.576Z,8.26
2023-04-19T03:15:59.561Z,8.19
2023-04-19T03:18:28.572Z,8.13
2023-04-19T03:20:58.185Z,8.04
2023-04-19T03:23:30.388Z,7.97
2023-04-19T03:26:01.103Z,7.91
2023-04-19T03:28:40.279Z,7.84
2023-04-19T03:31:23.454Z,7.80
2023-04-19T03:33:53.236Z,7.77
2023-04-19T03:36:26.982Z,7.74
2023-04-19T03:38:54.986Z,7.67
2023-04-19T03:41:26.470Z,7.64
2023-04-19T03:44:03.486Z,7.60
2023-04-19T03:46:31.913Z,7.60
2023-04-19T03:49:00.812Z,7.62
2023-04-19T03:51:29.987Z,7.63
2023-04-19T03:53:58.256Z,7.66
2023-04-19T03:56:26.550Z,7.70
2023-04-19T03:58:55.550Z,7.69
2023-04-19T04:01:25.050Z,7.70
2023-04-19T04:03:54.360Z,7.70
2023-04-19T04:06:22.914Z,7.73
2023-04-19T04:08:53.869Z,7.75
2023-04-19T04:11:22.173Z,7.75
2023-04-19T04:13:50.540Z,7.80
2023-04-19T04:16:23.174Z,7.83
2023-04-19T04:18:53.678Z,7.84
2023-04-19T04:21:27.158Z,7.87
2023-04-19T04:23:57.457Z,7.90
2023-04-19T04:26:35.428Z,7.92
2023-04-19T04:29:13.559Z,7.97
2023-04-19T04:31:42.691Z,8.01
2023-04-19T04:34:11.343Z,8.02
2023-04-19T04:36:49.759Z,8.04
2023-04-19T04:39:19.072Z,8.02
2023-04-19T04:41:48.283Z,8.08
2023-04-19T04:44:18.080Z,8.08
2023-04-19T04:46:47.710Z,8.13
2023-04-19T04:49:20.857Z,8.15
2023-04-19T04:51:48.804Z,8.16
2023-04-19T04:54:17.118Z,8.16
2023-04-19T04:56:46.065Z,8.18
2023-04-19T04:59:14.376Z,8.24
2023-04-19T05:01:46.059Z,8.25
2023-04-19T05:04:15.773Z,8.26
2023-04-19T05:06:44.628Z,8.28
2023-04-19T05:09:13.955Z,8.32
2023-04-19T05:11:42.042Z,8.33
2023-04-19T05:14:10.094Z,8.38
2023-04-19T05:16:38.335Z,8.46
2023-04-19T05:19:06.631Z,8.63
2023-04-19T05:21:41.325Z,8.85
2023-04-19T05:24:11.691Z,8.78
2023-04-19T05:26:40.683Z,8.81
2023-04-19T05:29:10.084Z,8.95
2023-04-19T05:31:45.870Z,9.71
2023-04-19T05:34:22.066Z,10.71
2023-04-19T05:36:53.745Z,11.16
2023-04-19T05:39:22.139Z,11.77
2023-04-19T05:41:50.190Z,12.33
2023-04-19T05:44:18.535Z,12.43
2023-04-19T05:46:46.543Z,12.29
2023-04-19T05:49:19.323Z,11.99
2023-04-19T05:52:05.832Z,12.01
2023-04-19T05:54:46.016Z,11.67
2023-04-19T05:57:14.057Z,12.08
2023-04-19T05:59:45.026Z,11.64
2023-04-19T06:02:15.936Z,12.14
2023-04-19T06:04:44.273Z,12.12
2023-04-19T06:07:22.213Z,11.60
2023-04-19T06:10:00.197Z,11.71
2023-04-19T06:12:28.188Z,11.87
2023-04-19T06:14:56.528Z,12.17
2023-04-19T06:17:27.885Z,11.90
2023-04-19T06:19:55.766Z,11.62
2023-04-19T06:22:23.975Z,11.49
2023-04-19T06:24:51.928Z,11.74
2023-04-19T06:27:19.785Z,11.71
2023-04-19T06:29:48.818Z,11.44
2023-04-19T06:32:18.468Z,11.71
2023-04-19T06:34:49.136Z,11.10
2023-04-19T06:37:17.087Z,11.14
2023-04-19T06:39:45.072Z,11.00
2023-04-19T06:42:13.023Z,11.23
2023-04-19T06:44:40.943Z,11.70
2023-04-19T06:47:11.468Z,11.71
2023-04-19T06:49:39.319Z,11.42
2023-04-19T06:52:09.847Z,11.60
2023-04-19T06:54:37.766Z,11.52
2023-04-19T06:57:05.726Z,11.59
2023-04-19T06:59:33.790Z,11.60
2023-04-19T07:02:01.978Z,11.74
2023-04-19T07:04:30.153Z,11.50
2023-04-19T07:06:58.240Z,12.02
2023-04-19T07:09:26.363Z,12.12
2023-04-19T07:11:54.512Z,11.63
2023-04-19T07:14:23.699Z,11.87
2023-04-19T07:16:53.754Z,11.99
2023-04-19T07:19:22.915Z,12.12
2023-04-19T07:21:51.283Z,12.49
2023-04-19T07:24:19.418Z,12.18
2023-04-19T07:26:50.162Z,11.98
2023-04-19T07:29:19.253Z,11.99
2023-04-19T07:31:47.296Z,12.06
2023-04-19T07:34:15.702Z,11.95
2023-04-19T07:36:43.821Z,11.64
2023-04-19T07:39:11.976Z,12.08
2023-04-19T07:41:42.114Z,12.56
2023-04-19T07:44:11.606Z,12.68
2023-04-19T07:46:42.885Z,12.42
2023-04-19T07:49:10.973Z,12.02
2023-04-19T07:51:38.924Z,12.02
2023-04-19T07:54:07.041Z,12.14
2023-04-19T07:56:34.989Z,12.64
2023-04-19T07:59:08.366Z,12.38
2023-04-19T08:01:37.401Z,11.95
2023-04-19T08:04:05.907Z,11.63
2023-04-19T08:06:34.562Z,12.02
2023-04-19T08:09:03.205Z,11.77
2023-04-19T08:11:31.339Z,11.69
2023-04-19T08:14:09.204Z,11.30
2023-04-19T08:17:19.388Z,10.98
2023-04-19T08:19:31.289Z,10.85
2023-04-19T08:21:59.612Z,11.08
2023-04-19T08:24:27.818Z,11.22
2023-04-19T08:26:57.527Z,10.94
2023-04-19T08:29:26.849Z,10.98
2023-04-19T08:31:54.806Z,10.95
2023-04-19T08:34:22.841Z,11.04
2023-04-19T08:37:00.748Z,10.78
2023-04-19T08:39:35.493Z,11.07
2023-04-19T08:42:12.581Z,11.35
2023-04-19T08:47:30.205Z,11.21
2023-04-19T08:50:11.766Z,10.95
2023-04-19T08:52:56.061Z,11.10
2023-04-19T08:55:29.832Z,11.02
2023-04-19T08:57:58.694Z,11.11
2023-04-19T09:00:26.758Z,11.25
2023-04-19T09:02:55.890Z,11.14
2023-04-19T09:05:24.246Z,11.33
2023-04-19T09:07:52.407Z,11.14
2023-04-19T09:10:21.364Z,11.16
2023-04-19T09:13:07.394Z,11.32
2023-04-19T09:15:41.026Z,11.32
2023-04-19T09:18:10.905Z,11.49
2023-04-19T09:20:41.831Z,11.57
2023-04-19T09:23:15.067Z,11.62
2023-04-19T09:26:19.125Z,11.56
2023-04-19T09:29:03.142Z,11.71
2023-04-19T09:31:47.855Z,11.66
2023-04-19T09:34:19.992Z,11.87
2023-04-19T09:36:52.402Z,11.69
2023-04-19T09:39:32.816Z,11.78
2023-04-19T09:42:01.893Z,11.63
2023-04-19T09:47:01.645Z,11.87
2023-04-19T09:49:41.554Z,11.95
2023-04-19T09:52:16.466Z,11.81
2023-04-19T09:54:45.193Z,11.90
2023-04-19T09:57:13.763Z,11.83
2023-04-19T09:59:41.749Z,12.26
2023-04-19T10:02:13.276Z,12.22
2023-04-19T10:04:59.699Z,12.28
2023-04-19T10:07:32.858Z,12.30
2023-04-19T10:12:52.373Z,12.36
2023-04-19T10:15:26.807Z,12.45
2023-04-19T10:17:57.587Z,12.50
2023-04-19T10:20:51.122Z,12.67
2023-04-19T10:23:20.563Z,12.47
2023-04-19T10:25:49.160Z,12.77
2023-04-19T10:28:17.566Z,13.07
2023-04-19T10:31:14.710Z,12.95
2023-04-19T10:33:43.002Z,13.12
2023-04-19T10:36:15.833Z,13.10
2023-04-19T10:38:51.636Z,13.08
2023-04-19T10:41:20.112Z,12.85
2023-04-19T10:43:57.710Z,13.10
2023-04-19T10:46:26.004Z,13.11
2023-04-19T10:49:02.004Z,13.14
2023-04-19T10:51:44.361Z,13.22
2023-04-19T10:54:33.926Z,12.88
2023-04-19T10:57:06.803Z,13.21
2023-04-19T10:59:43.186Z,13.35
2023-04-19T11:02:23.864Z,13.21
2023-04-19T11:04:52.103Z,13.07
2023-04-19T11:07:21.393Z,13.40
2023-04-19T11:09:51.133Z,13.28
2023-04-19T11:12:21.053Z,13.12
2023-04-19T11:14:54.618Z,13.22
2023-04-19T11:17:28.017Z,13.36
2023-04-19T11:20:03.428Z,13.39
2023-04-19T11:22:34.917Z,13.11
2023-04-19T11:25:12.893Z,12.98
2023-04-19T11:27:42.952Z,13.05
2023-04-19T11:30:16.804Z,13.36
2023-04-19T11:32:53.623Z,13.36
2023-04-19T11:35:30.835Z,13.42
2023-04-19T11:38:00.050Z,13.73
2023-04-19T11:40:27.971Z,13.57
2023-04-19T11:43:00.205Z,13.73
2023-04-19T11:45:35.556Z,13.71
2023-04-19T11:48:07.834Z,13.77
2023-04-19T11:50:43.266Z,13.74
2023-04-19T11:53:21.791Z,13.67
2023-04-19T11:56:09.160Z,13.70
2023-04-19T11:58:44.600Z,13.91
2023-04-19T12:01:13.654Z,13.93
2023-04-19T12:03:47.122Z,14.14
2023-04-19T12:06:18.409Z,13.81
2023-04-19T12:08:48.849Z,13.66
2023-04-19T12:11:19.311Z,13.95
2023-04-19T12:13:47.690Z,13.97
2023-04-19T12:16:27.478Z,13.91
2023-04-19T12:18:55.626Z,14.00
2023-04-19T12:21:35.809Z,13.85
2023-04-19T12:24:04.091Z,13.57
2023-04-19T12:26:32.691Z,13.81
2023-04-19T12:29:02.758Z,13.97
2023-04-19T12:31:35.277Z,14.25
2023-04-19T12:34:03.166Z,14.18
2023-04-19T12:36:31.081Z,14.25
2023-04-19T12:38:59.002Z,14.26
2023-04-19T12:41:27.054Z,14.45
2023-04-19T12:43:55.103Z,14.36
2023-04-19T12:46:23.339Z,14.57
2023-04-19T12:48:51.455Z,14.55
2023-04-19T12:51:19.620Z,14.53
2023-04-19T12:53:50.888Z,14.38
2023-04-19T12:56:19.200Z,14.56
2023-04-19T12:58:47.337Z,14.55
2023-04-19T13:01:15.610Z,14.62
2023-04-19T13:03:43.906Z,14.59
2023-04-19T13:06:15.656Z,14.62
2023-04-19T13:08:47.018Z,14.70
2023-04-19T13:11:22.947Z,14.69
2023-04-19T13:13:52.852Z,14.73
2023-04-19T13:16:21.294Z,14.59
2023-04-19T13:18:51.128Z,14.67
2023-04-19T13:21:19.551Z,14.76
2023-04-19T13:23:47.794Z,14.59
2023-04-19T13:26:16.603Z,14.63
2023-04-19T13:28:44.879Z,14.94
2023-04-19T13:31:13.273Z,14.81
2023-04-19T13:33:41.556Z,14.55
2023-04-19T13:36:21.187Z,14.67
2023-04-19T13:38:49.763Z,14.70
2023-04-19T13:44:05.185Z,14.66
2023-04-19T13:46:38.015Z,14.79
2023-04-19T13:49:12.672Z,14.88
2023-04-19T13:51:51.809Z,14.93
2023-04-19T13:54:21.664Z,14.67
2023-04-19T13:56:58.933Z,14.50
2023-04-19T13:59:27.381Z,14.45
2023-04-19T14:01:56.131Z,14.46
2023-04-19T14:04:24.891Z,14.56
2023-04-19T14:06:53.230Z,14.52
2023-04-19T14:09:21.293Z,14.50
2023-04-19T14:11:49.482Z,14.49
2023-04-19T14:14:17.996Z,14.65
2023-04-19T14:16:46.216Z,14.62
2023-04-19T14:19:14.397Z,14.55
2023-04-19T14:21:43.114Z,14.69
2023-04-19T14:24:11.013Z,14.60
2023-04-19T14:26:42.029Z,14.53
2023-04-19T14:29:10.082Z,14.53
2023-04-19T14:31:38.339Z,14.60
2023-04-19T14:34:06.856Z,14.59
2023-04-19T14:36:35.003Z,14.72
2023-04-19T14:39:03.301Z,14.65
2023-04-19T14:41:31.630Z,14.65
2023-04-19T14:43:59.847Z,14.66
2023-04-19T14:46:28.173Z,14.62
2023-04-19T14:48:57.413Z,14.79
2023-04-19T14:51:26.055Z,14.63
2023-04-19T14:53:54.311Z,14.55
2023-04-19T14:56:22.350Z,14.63
2023-04-19T14:58:50.386Z,14.55
2023-04-19T15:01:18.993Z,14.50
2023-04-19T15:03:47.676Z,14.60
2023-04-19T15:06:18.510Z,14.47
2023-04-19T15:08:47.112Z,14.57
2023-04-19T15:11:17.721Z,14.45
2023-04-19T15:13:46.256Z,14.32
2023-04-19T15:16:14.637Z,14.43
2023-04-19T15:18:47.718Z,14.38
2023-04-19T15:21:24.399Z,14.47
2023-04-19T15:24:07.603Z,14.50
2023-04-19T15:29:19.039Z,14.43
2023-04-19T15:31:47.583Z,14.45
2023-04-19T15:34:16.176Z,14.46
2023-04-19T15:36:48.476Z,14.47
2023-04-19T15:39:16.996Z,14.46
2023-04-19T15:41:45.613Z,14.32
2023-04-19T15:44:13.787Z,14.39
2023-04-19T15:46:45.053Z,14.35
2023-04-19T15:49:13.370Z,14.35
2023-04-19T15:51:41.757Z,14.35
2023-04-19T15:54:15.987Z,14.28
2023-04-19T15:57:02.522Z,14.22
2023-04-19T15:59:38.692Z,13.94
2023-04-19T16:02:08.380Z,13.93
2023-04-19T16:04:43.477Z,14.00
2023-04-19T16:07:14.912Z,14.15
2023-04-19T16:09:51.335Z,14.15
2023-04-19T16:15:31.290Z,14.32
2023-04-19T16:17:59.312Z,14.33
2023-04-19T16:20:28.139Z,14.32
2023-04-19T16:23:05.730Z,14.00
2023-04-19T16:25:34.875Z,13.78
2023-04-19T16:28:13.580Z,13.76
2023-04-19T16:30:42.756Z,13.84
2023-04-19T16:33:18.137Z,13.91
2023-04-19T16:36:01.509Z,14.01
2023-04-19T16:38:36.163Z,13.98
2023-04-19T16:41:09.128Z,13.95
2023-04-19T16:43:47.333Z,13.93
2023-04-19T16:46:16.629Z,13.90
2023-04-19T16:48:55.683Z,13.81
2023-04-19T16:51:24.334Z,13.80
2023-04-19T16:53:58.455Z,13.74
2023-04-19T16:59:20.722Z,13.84
2023-04-19T17:01:49.638Z,13.73
2023-04-19T17:04:21.655Z,13.66
2023-04-19T17:07:00.369Z,13.66
2023-04-19T17:09:29.206Z,13.63
2023-04-19T17:12:09.357Z,13.62
2023-04-19T17:14:43.652Z,13.62
2023-04-19T17:17:11.931Z,13.62
2023-04-19T17:19:43.859Z,13.57
2023-04-19T17:22:15.892Z,13.60
2023-04-19T17:24:45.668Z,13.60
2023-04-19T17:27:15.294Z,13.55
2023-04-19T17:29:44.972Z,13.42
2023-04-19T17:32:26.303Z,13.38
2023-04-19T17:34:54.929Z,13.30
2023-04-19T17:37:44.138Z,13.26
2023-04-19T17:40:16.403Z,13.16
2023-04-19T17:42:48.489Z,13.10
2023-04-19T17:45:20.641Z,13.02
2023-04-19T17:47:59.700Z,12.93
2023-04-19T17:50:33.810Z,12.88
2023-04-19T17:56:08.216Z,12.81
2023-04-19T17:58:41.164Z,12.79
2023-04-19T18:01:13.007Z,12.72
2023-04-19T18:04:02.139Z,12.64
2023-04-19T18:06:32.272Z,12.52
2023-04-19T18:09:01.122Z,12.45
2023-04-19T18:11:30.208Z,12.46
2023-04-19T18:14:05.949Z,12.39
2023-04-19T18:16:35.058Z,12.33
2023-04-19T18:19:04.447Z,12.26
2023-04-19T18:21:48.530Z,12.22
2023-04-19T18:24:24.877Z,12.12
2023-04-19T18:27:07.235Z,11.99
2023-04-19T18:29:36.258Z,11.91
2023-04-19T18:32:06.671Z,11.74
2023-04-19T18:34:43.100Z,11.73
2023-04-19T18:37:19.337Z,11.67
2023-04-19T18:39:52.429Z,11.63
2023-04-19T18:42:23.335Z,11.57
2023-04-19T18:44:54.569Z,11.53
2023-04-19T18:47:26.540Z,11.40
2023-04-19T18:50:05.257Z,11.38
2023-04-19T18:52:39.196Z,11.26
2023-04-19T18:55:08.779Z,11.22
2023-04-19T18:57:39.442Z,11.21
2023-04-19T19:00:15.098Z,11.14
2023-04-19T19:02:51.056Z,11.01
2023-04-19T19:05:24.854Z,11.02
2023-04-19T19:07:57.848Z,10.94
2023-04-19T19:13:04.199Z,10.85
2023-04-19T19:18:37.296Z,10.73
2023-04-19T19:21:09.625Z,10.68
2023-04-19T19:23:42.443Z,10.70
2023-04-19T19:26:14.232Z,10.60
2023-04-19T19:28:44.041Z,10.50
2023-04-19T19:31:14.650Z,10.45
2023-04-19T19:33:51.876Z,10.35
2023-04-19T19:36:32.962Z,10.23
2023-04-19T19:39:02.845Z,10.09
2023-04-19T19:42:03.316Z,9.98
2023-04-19T19:44:22.628Z,9.90
2023-04-19T19:46:51.053Z,9.85
2023-04-19T19:49:20.085Z,9.88
2023-04-19T19:51:58.260Z,9.90
2023-04-19T19:54:27.747Z,9.87
2023-04-19T19:57:57.284Z,9.88
2023-04-19T19:59:56.356Z,9.80
2023-04-19T20:02:27.529Z,9.70
2023-04-19T20:05:00.549Z,9.60
2023-04-19T20:07:53.460Z,9.51
2023-04-19T20:10:19.838Z,9.43
2023-04-19T20:12:48.836Z,9.39
2023-04-19T20:15:17.420Z,9.38
2023-04-19T20:17:45.992Z,9.32
2023-04-19T20:20:15.196Z,9.30
2023-04-19T20:22:43.085Z,9.22
2023-04-19T20:25:13.177Z,9.15
2023-04-19T20:27:41.242Z,9.12
2023-04-19T20:30:10.161Z,9.10
2023-04-19T20:32:38.641Z,9.02
2023-04-19T20:35:09.364Z,8.97
2023-04-19T20:37:41.638Z,8.89
2023-04-19T20:40:12.706Z,8.85
2023-04-19T20:42:41.465Z,8.80
2023-04-19T20:45:10.623Z,8.77
2023-04-19T20:47:38.889Z,8.75
2023-04-19T20:50:07.928Z,8.67
2023-04-19T20:52:36.173Z,8.60
2023-04-19T20:55:05.003Z,8.56
2023-04-19T20:57:33.061Z,8.49
2023-04-19T21:00:01.135Z,8.43
2023-04-19T21:02:29.491Z,8.40
2023-04-19T21:04:57.586Z,8.33
2023-04-19T21:07:25.629Z,8.22
2023-04-19T21:09:53.565Z,8.18
2023-04-19T21:12:21.504Z,8.15
2023-04-19T21:14:52.304Z,8.16
2023-04-19T21:17:20.927Z,8.09
2023-04-19T21:19:49.301Z,8.06
2023-04-19T21:22:17.365Z,7.99
2023-04-19T21:24:45.371Z,7.94
2023-04-19T21:27:13.810Z,7.91
2023-04-19T21:29:41.820Z,7.90
2023-04-19T21:32:09.792Z,7.87
2023-04-19T21:34:38.436Z,7.80
2023-04-19T21:37:06.801Z,7.78
2023-04-19T21:39:34.870Z,7.74
2023-04-19T21:42:02.877Z,7.73
2023-04-19T21:44:35.346Z,7.64
2023-04-19T21:47:03.879Z,7.63
2023-04-19T21:49:32.327Z,7.63
2023-04-19T21:52:03.769Z,7.71
2023-04-19T21:54:34.379Z,7.73
2023-04-19T21:57:03.211Z,7.70
2023-04-19T21:59:34.744Z,7.71
2023-04-19T22:02:03.431Z,7.71
2023-04-19T22:04:31.769Z,7.73
2023-04-19T22:07:03.256Z,7.70
2023-04-19T22:09:31.703Z,7.64
2023-04-19T22:12:05.436Z,7.66
2023-04-19T22:14:35.754Z,7.64
2023-04-19T22:17:04.815Z,7.60
2023-04-19T22:19:32.965Z,7.59
2023-04-19T22:22:03.527Z,7.57
2023-04-19T22:24:31.621Z,7.49
2023-04-19T22:27:01.799Z,7.49
2023-04-19T22:29:30.140Z,7.46
2023-04-19T22:31:58.422Z,7.42
2023-04-19T22:34:26.475Z,7.36
2023-04-19T22:36:54.522Z,7.28
2023-04-19T22:39:22.590Z,7.23
2023-04-19T22:41:50.954Z,7.19
2023-04-19T22:44:19.012Z,7.12
2023-04-19T22:46:47.449Z,7.12
2023-04-19T22:49:15.929Z,7.05
2023-04-19T22:51:45.211Z,7.02
2023-04-19T22:54:13.271Z,6.98
2023-04-19T22:56:41.437Z,7.02
2023-04-19T22:59:09.552Z,6.97
2023-04-19T23:01:37.687Z,7.04
2023-04-19T23:04:05.890Z,6.92
2023-04-19T23:06:33.813Z,6.85
2023-04-19T23:09:02.256Z,6.83
2023-04-19T23:11:30.597Z,6.72
2023-04-19T23:13:58.771Z,6.62
2023-04-19T23:16:29.325Z,6.50
2023-04-19T23:18:57.312Z,6.39
2023-04-19T23:21:25.535Z,6.30
2023-04-19T23:23:56.093Z,6.22
2023-04-19T23:26:24.444Z,6.14
2023-04-19T23:28:52.440Z,6.07
2023-04-19T23:31:20.766Z,5.98
2023-04-19T23:33:49.203Z,5.95
2023-04-19T23:36:17.260Z,5.91
2023-04-19T23:38:45.148Z,5.87
2023-04-19T23:41:13.387Z,5.77
2023-04-19T23:43:46.448Z,5.78
2023-04-19T23:46:14.473Z,5.75
2023-04-19T23:48:42.878Z,5.78
2023-04-19T23:51:12.524Z,5.75
2023-04-19T23:53:41.018Z,5.80
2023-04-19T23:56:12.551Z,5.80
2023-04-19T23:58:41.450Z,5.77
